createdAt,value
2018-07-27T00:01:04.958Z,16.60
2018-07-27T00:03:32.803Z,17.08
2018-07-27T00:06:00.468Z,16.42
2018-07-27T00:08:27.119Z,17.27
2018-07-27T00:10:53.904Z,18.20
2018-07-27T00:13:20.764Z,17.77
2018-07-27T00:15:47.529Z,18.12
2018-07-27T00:18:14.989Z,17.27
2018-07-27T00:20:41.706Z,16.87
2018-07-27T00:23:08.504Z,17.87
2018-07-27T00:25:35.935Z,15.48
2018-07-27T00:28:02.706Z,16.62
2018-07-27T00:30:29.366Z,16.48
2018-07-27T00:32:56.025Z,16.77
2018-07-27T00:35:22.745Z,17.60
2018-07-27T00:37:49.412Z,16.30
2018-07-27T00:40:16.872Z,15.77
2018-07-27T00:42:43.587Z,14.90
2018-07-27T00:45:10.292Z,14.98
2018-07-27T00:47:37.731Z,15.38
2018-07-27T00:50:05.208Z,14.65
2018-07-27T00:52:32.645Z,14.38
2018-07-27T00:54:59.303Z,14.38
2018-07-27T00:57:26.885Z,14.20
2018-07-27T00:59:53.545Z,14.45
2018-07-27T01:02:20.231Z,14.30
2018-07-27T01:04:46.943Z,13.95
2018-07-27T01:07:13.600Z,15.15
2018-07-27T01:09:41.072Z,14.20
2018-07-27T01:12:08.502Z,13.73
2018-07-27T01:14:35.188Z,13.98
2018-07-27T01:17:01.851Z,13.52
2018-07-27T01:19:28.526Z,14.10
2018-07-27T01:21:55.219Z,13.77
2018-07-27T01:24:21.878Z,14.82
2018-07-27T01:26:48.559Z,13.32
2018-07-27T01:29:15.278Z,14.20
2018-07-27T01:31:42.010Z,13.23
2018-07-27T01:34:08.663Z,16.90
2018-07-27T01:36:35.516Z,15.02
2018-07-27T01:39:03.005Z,15.40
2018-07-27T01:41:29.710Z,15.77
2018-07-27T01:43:57.171Z,15.68
2018-07-27T01:46:24.599Z,15.13
2018-07-27T01:48:51.269Z,15.07
2018-07-27T01:51:18.802Z,15.10
2018-07-27T01:53:45.473Z,14.85
2018-07-27T01:56:12.871Z,14.95
2018-07-27T01:58:39.619Z,15.52
2018-07-27T02:01:06.320Z,14.00
2018-07-27T02:03:33.018Z,13.88
2018-07-27T02:05:59.679Z,15.07
2018-07-27T02:08:26.349Z,13.48
2018-07-27T02:10:53.075Z,13.57
2018-07-27T02:13:20.469Z,13.50
2018-07-27T02:15:47.245Z,13.60
2018-07-27T02:18:13.889Z,13.18
2018-07-27T02:20:41.334Z,13.25
2018-07-27T02:23:08.043Z,13.30
2018-07-27T02:25:34.698Z,13.30
2018-07-27T02:28:01.364Z,12.93
2018-07-27T02:30:28.809Z,13.02
2018-07-27T02:32:55.469Z,12.18
2018-07-27T02:35:22.912Z,13.52
2018-07-27T02:37:49.556Z,13.68
2018-07-27T02:40:16.952Z,13.20
2018-07-27T02:42:43.668Z,14.35
2018-07-27T02:45:11.070Z,15.00
2018-07-27T02:47:37.777Z,14.07
2018-07-27T02:50:19.461Z,11.90
2018-07-27T02:52:46.151Z,12.73
2018-07-27T02:55:12.837Z,12.68
2018-07-27T02:57:39.629Z,11.32
2018-07-27T03:00:06.293Z,11.65
2018-07-27T03:02:33.719Z,11.25
2018-07-27T03:05:00.441Z,10.95
2018-07-27T03:07:27.121Z,11.18
2018-07-27T03:09:53.915Z,13.35
2018-07-27T03:12:21.225Z,11.55
2018-07-27T03:14:48.673Z,12.30
2018-07-27T03:17:15.342Z,10.85
2018-07-27T03:19:42.015Z,11.18
2018-07-27T03:22:08.669Z,12.13
2018-07-27T03:24:35.350Z,11.12
2018-07-27T03:27:02.783Z,11.65
2018-07-27T03:29:29.481Z,20.42
2018-07-27T03:31:56.155Z,11.12
2018-07-27T03:34:22.795Z,11.18
2018-07-27T03:36:49.490Z,10.82
2018-07-27T03:39:16.169Z,12.27
2018-07-27T03:41:42.813Z,19.45
2018-07-27T03:44:09.574Z,12.18
2018-07-27T03:46:37.015Z,12.63
2018-07-27T03:49:03.715Z,12.43
2018-07-27T03:51:30.443Z,11.45
2018-07-27T03:53:57.123Z,13.13
2018-07-27T03:56:23.834Z,12.65
2018-07-27T03:58:50.516Z,12.68
2018-07-27T04:01:17.971Z,15.57
2018-07-27T04:03:44.635Z,12.95
2018-07-27T04:06:11.296Z,12.45
2018-07-27T04:08:37.991Z,12.23
2018-07-27T04:11:04.636Z,13.82
2018-07-27T04:13:32.046Z,11.68
2018-07-27T04:15:58.750Z,13.40
2018-07-27T04:18:25.436Z,13.48
2018-07-27T04:20:52.128Z,12.18
2018-07-27T04:23:19.532Z,10.88
2018-07-27T04:25:46.200Z,11.05
2018-07-27T04:28:13.651Z,11.77
2018-07-27T04:30:40.320Z,11.20
2018-07-27T04:33:07.961Z,12.00
2018-07-27T04:35:34.753Z,10.85
2018-07-27T04:38:01.416Z,11.52
2018-07-27T04:40:28.085Z,10.55
2018-07-27T04:42:55.725Z,9.48
2018-07-27T04:45:23.230Z,9.43
2018-07-27T04:47:49.975Z,8.57
2018-07-27T04:50:16.711Z,10.13
2018-07-27T04:52:43.449Z,9.35
2018-07-27T04:55:10.176Z,9.60
2018-07-27T04:57:37.651Z,11.57
2018-07-27T05:00:04.392Z,11.18
2018-07-27T05:02:31.132Z,11.15
2018-07-27T05:04:57.869Z,10.90
2018-07-27T05:07:24.545Z,11.10
2018-07-27T05:09:53.560Z,12.10
2018-07-27T05:12:21.038Z,11.80
2018-07-27T05:14:47.735Z,12.30
2018-07-27T05:17:14.442Z,12.10
2018-07-27T05:19:41.182Z,11.43
2018-07-27T05:22:07.921Z,12.18
2018-07-27T05:24:34.793Z,12.37
2018-07-27T05:27:01.475Z,14.23
2018-07-27T05:29:28.242Z,13.93
2018-07-27T05:31:54.982Z,12.60
2018-07-27T05:34:21.760Z,14.27
2018-07-27T05:36:48.568Z,13.95
2018-07-27T05:39:15.306Z,14.25
2018-07-27T05:41:42.045Z,13.93
2018-07-27T05:44:08.719Z,13.23
2018-07-27T05:46:35.529Z,13.38
2018-07-27T05:49:02.268Z,12.85
2018-07-27T05:51:29.005Z,11.57
2018-07-27T05:53:55.725Z,11.73
2018-07-27T05:56:23.205Z,11.50
2018-07-27T05:58:50.251Z,12.13
2018-07-27T06:01:17.039Z,11.93
2018-07-27T06:03:43.836Z,11.05
2018-07-27T06:06:10.578Z,11.05
2018-07-27T06:08:37.336Z,10.82
2018-07-27T06:11:04.037Z,10.48
2018-07-27T06:13:31.515Z,10.65
2018-07-27T06:15:58.227Z,9.93
2018-07-27T06:18:25.602Z,9.70
2018-07-27T06:20:52.484Z,9.82
2018-07-27T06:23:19.192Z,10.07
2018-07-27T06:25:45.910Z,10.93
2018-07-27T06:28:13.352Z,11.50
2018-07-27T06:30:40.030Z,10.30
2018-07-27T06:33:06.768Z,11.65
2018-07-27T06:35:33.489Z,10.93
2018-07-27T06:38:00.357Z,10.68
2018-07-27T06:40:27.026Z,9.95
2018-07-27T06:42:53.733Z,10.27
2018-07-27T06:45:20.525Z,10.98
2018-07-27T06:47:47.940Z,9.80
2018-07-27T06:50:14.671Z,11.32
2018-07-27T06:52:41.418Z,10.90
2018-07-27T06:55:08.065Z,10.07
2018-07-27T06:57:34.787Z,10.20
2018-07-27T07:00:01.837Z,9.88
2018-07-27T07:02:28.578Z,10.38
2018-07-27T07:04:55.316Z,10.38
2018-07-27T07:07:21.987Z,9.90
2018-07-27T07:09:48.664Z,10.43
2018-07-27T07:12:22.400Z,10.18
2018-07-27T07:14:49.052Z,9.75
2018-07-27T07:17:15.778Z,10.80
2018-07-27T07:19:42.521Z,11.07
2018-07-27T07:22:09.257Z,11.95
2018-07-27T07:24:35.998Z,11.40
2018-07-27T07:27:02.741Z,11.50
2018-07-27T07:29:29.479Z,11.02
2018-07-27T07:31:56.220Z,11.25
2018-07-27T07:34:22.961Z,10.85
2018-07-27T07:36:49.699Z,11.25
2018-07-27T07:39:17.131Z,10.10
2018-07-27T07:41:43.778Z,10.52
2018-07-27T07:44:11.177Z,11.38
2018-07-27T07:46:37.894Z,10.70
2018-07-27T07:49:04.738Z,10.57
2018-07-27T07:51:31.472Z,11.27
2018-07-27T07:53:58.144Z,10.38
2018-07-27T07:56:24.959Z,12.13
2018-07-27T07:58:51.675Z,11.50
2018-07-27T08:01:19.152Z,11.30
2018-07-27T08:03:45.894Z,10.95
2018-07-27T08:06:12.632Z,10.80
2018-07-27T08:08:39.349Z,10.48
2018-07-27T08:11:06.784Z,11.35
2018-07-27T08:13:33.477Z,10.88
2018-07-27T08:16:00.092Z,11.20
2018-07-27T08:18:27.522Z,10.73
2018-07-27T08:20:54.223Z,11.48
2018-07-27T08:23:20.894Z,11.27
2018-07-27T08:25:47.591Z,10.65
2018-07-27T08:28:26.673Z,11.38
2018-07-27T08:30:53.305Z,10.30
